Time;durP1;ratioP1;P1;durP2;ratioP2;P2;SDS_P1;SDS_P2;PMS_P1;PMS_P2;Temp;Humidity;BMP_temperature;BMP_pressure;BME280_temperature;BME280_humidity;BME280_pressure;Samples;Min_cycle;Max_cycle;Signal;HPM_P1;HPM_P2
2022/11/13 00:00:45;;;;;;;;;;;;;;;19.29;65.78;102612.88;7401338;19;1335;-66
2022/11/13 00:03:16;;;;;;;;;;;;;;;19.28;65.53;102605.81;7405098;19;1423;-66
2022/11/13 00:05:44;;;;;;;;;;;;;;;19.30;65.48;102600.31;7404801;19;1339;-66
2022/11/13 00:08:12;;;;;;;;;;;;;;;19.28;65.50;102611.16;7403856;19;1292;-66
2022/11/13 00:10:41;;;;;;;;;;;;;;;19.31;65.57;102608.28;7406124;19;984;-66
2022/11/13 00:13:09;;;;;;;;;;;;;;;19.32;65.39;102615.38;7402195;19;1462;-66
2022/11/13 00:15:38;;;;;;;;;;;;;;;19.32;65.12;102601.97;7401807;19;1619;-66
2022/11/13 00:18:06;;;;;;;;;;;;;;;19.34;65.36;102601.84;7403936;19;1395;-66
2022/11/13 00:20:37;;;;;;;;;;;;;;;19.29;65.30;102602.16;7402211;19;1851;-66
2022/11/13 00:23:06;;;;;;;;;;;;;;;19.27;65.00;102606.75;7402266;19;1341;-66
2022/11/13 00:25:36;;;;;;;;;;;;;;;19.27;65.35;102607.59;7403577;19;1016;-66
2022/11/13 00:28:05;;;;;;;;;;;;;;;19.30;64.91;102605.69;7405449;19;1459;-66
2022/11/13 00:30:33;;;;;;;;;;;;;;;19.27;65.21;102610.28;7410968;19;1539;-66
2022/11/13 00:33:01;;;;;;;;;;;;;;;19.27;64.99;102612.09;7410578;19;1441;-66
2022/11/13 00:35:29;;;;;;;;;;;;;;;19.26;65.03;102603.19;7410550;19;1623;-66
2022/11/13 00:38:00;;;;;;;;;;;;;;;19.26;64.56;102600.53;7410872;19;1397;-66
2022/11/13 00:40:29;;;;;;;;;;;;;;;19.24;64.69;102606.94;7409703;19;1855;-66
2022/11/13 00:42:57;;;;;;;;;;;;;;;19.25;64.99;102598.78;7408610;19;1709;-66
2022/11/13 00:45:25;;;;;;;;;;;;;;;19.26;64.60;102602.34;7410645;19;1383;-66
2022/11/13 00:47:53;;;;;;;;;;;;;;;19.26;65.00;102619.28;7410239;19;1622;-66
2022/11/13 00:50:22;;;;;;;;;;;;;;;19.22;64.72;102587.41;7410371;19;1304;-66
2022/11/13 00:52:50;;;;;;;;;;;;;;;19.23;64.77;102610.56;7410958;19;1527;-66
2022/11/13 00:55:21;;;;;;;;;;;;;;;19.24;64.51;102617.66;7411103;19;996;-66
2022/11/13 00:57:49;;;;;;;;;;;;;;;19.25;65.23;102614.88;7408584;19;1542;-66
2022/11/13 01:00:18;;;;;;;;;;;;;;;19.28;64.85;102612.03;7406512;19;1858;-66
2022/11/13 01:02:46;;;;;;;;;;;;;;;19.23;65.35;102614.09;7406129;19;1276;-66
2022/11/13 01:05:15;;;;;;;;;;;;;;;19.22;64.53;102631.16;7410150;19;1548;-66
2022/11/13 01:07:43;;;;;;;;;;;;;;;19.21;64.88;102620.53;7411476;19;979;-66
2022/11/13 01:10:12;;;;;;;;;;;;;;;19.20;65.09;102616.09;7410022;19;1342;-66
2022/11/13 01:12:43;;;;;;;;;;;;;;;19.20;65.00;102610.72;7404454;19;1442;-66
2022/11/13 01:15:11;;;;;;;;;;;;;;;19.18;65.08;102615.31;7409163;19;1316;-66
2022/11/13 01:17:40;;;;;;;;;;;;;;;19.16;64.83;102603.81;7408759;19;1256;-66
2022/11/13 01:20:08;;;;;;;;;;;;;;;19.15;64.59;102616.38;7407977;19;1854;-66
2022/11/13 01:22:37;;;;;;;;;;;;;;;19.15;64.68;102605.66;7410727;19;989;-66
2022/11/13 01:25:05;;;;;;;;;;;;;;;19.15;64.64;102604.81;7409141;19;1920;-66
2022/11/13 01:27:34;;;;;;;;;;;;;;;19.15;64.34;102602.97;7404721;19;1456;-66
2022/11/13 01:30:05;;;;;;;;;;;;;;;19.16;64.47;102617.25;7407891;19;1309;-66
2022/11/13 01:32:33;;;;;;;;;;;;;;;19.14;64.32;102603.06;7408268;19;1267;-66
2022/11/13 01:35:01;;;;;;;;;;;;;;;19.16;64.20;102611.88;7409597;19;886;-66
2022/11/13 01:37:30;;;;;;;;;;;;;;;19.18;64.18;102618.00;7408232;19;1636;-65
2022/11/13 01:39:58;;;;;;;;;;;;;;;19.15;64.28;102612.84;7408121;19;1864;-66
2022/11/13 01:42:26;;;;;;;;;;;;;;;19.16;64.01;102602.03;7406399;19;1454;-66
2022/11/13 01:44:55;;;;;;;;;;;;;;;19.17;63.95;102606.44;7408345;19;1352;-66
2022/11/13 01:47:27;;;;;;;;;;;;;;;19.15;64.04;102604.81;7409473;19;1199;-66
2022/11/13 01:49:56;;;;;;;;;;;;;;;19.16;64.11;102611.88;7409984;19;1025;-66
2022/11/13 01:52:27;;;;;;;;;;;;;;;19.17;64.00;102603.75;7408802;19;1765;-66
2022/11/13 01:54:57;;;;;;;;;;;;;;;19.12;63.85;102595.13;7407942;19;1797;-66
2022/11/13 01:57:25;;;;;;;;;;;;;;;19.15;63.79;102605.66;7407055;19;1573;-66
2022/11/13 01:59:56;;;;;;;;;;;;;;;19.13;63.88;102606.72;7407046;19;1846;-66
2022/11/13 02:02:27;;;;;;;;;;;;;;;19.14;63.91;102595.00;7406473;19;1046;-66
2022/11/13 02:04:55;;;;;;;;;;;;;;;19.81;63.12;102593.59;7409084;19;1058;-66
2022/11/13 02:07:24;;;;;;;;;;;;;;;20.01;62.62;102600.38;7408091;19;1581;-66
2022/11/13 02:09:55;;;;;;;;;;;;;;;20.07;62.45;102601.81;7407393;19;1439;-66
2022/11/13 02:12:27;;;;;;;;;;;;;;;20.33;62.07;102597.44;7403625;19;1809;-66
2022/11/13 02:14:56;;;;;;;;;;;;;;;20.16;62.60;102582.44;7408599;19;1622;-66
2022/11/13 02:17:29;;;;;;;;;;;;;;;20.39;62.19;102582.75;7408663;19;1001;-66
2022/11/13 02:20:00;;;;;;;;;;;;;;;20.32;62.08;102579.63;7407736;19;1852;-66
2022/11/13 02:22:34;;;;;;;;;;;;;;;20.45;61.80;102574.28;7408511;19;1761;-66
2022/11/13 02:25:05;;;;;;;;;;;;;;;20.56;62.01;102582.50;7407318;19;1611;-66
2022/11/13 02:27:36;;;;;;;;;;;;;;;20.75;61.52;102573.25;7402560;19;1721;-66
2022/11/13 02:30:13;;;;;;;;;;;;;;;20.77;61.16;102572.19;7406684;19;1618;-66
2022/11/13 02:32:44;;;;;;;;;;;;;;;20.87;61.08;102575.13;7406965;19;1544;-66
2022/11/13 02:35:13;;;;;;;;;;;;;;;21.04;60.64;102574.81;7407587;19;1423;-66
2022/11/13 02:37:41;;;;;;;;;;;;;;;21.03;60.53;102572.25;7407490;19;1280;-66
2022/11/13 02:40:13;;;;;;;;;;;;;;;20.90;60.57;102585.66;7407108;19;1860;-66
2022/11/13 02:42:42;;;;;;;;;;;;;;;20.56;61.94;102595.94;7403958;19;1553;-66
2022/11/13 02:45:11;;;;;;;;;;;;;;;20.79;60.91;102574.75;7407010;19;1488;-66
2022/11/13 02:47:39;;;;;;;;;;;;;;;20.88;60.67;102576.00;7406790;19;1041;-66
2022/11/13 02:50:09;;;;;;;;;;;;;;;20.64;60.85;102588.28;7401912;19;1580;-66
2022/11/13 02:52:37;;;;;;;;;;;;;;;20.75;61.12;102579.50;7405991;19;1276;-66
2022/11/13 02:55:06;;;;;;;;;;;;;;;20.85;60.66;102579.75;7405940;19;1551;-66
2022/11/13 02:57:37;;;;;;;;;;;;;;;20.85;59.98;102579.75;7406169;19;1540;-66
2022/11/13 03:00:06;;;;;;;;;;;;;;;20.64;61.01;102595.47;7406300;19;1871;-66
2022/11/13 03:02:34;;;;;;;;;;;;;;;20.91;60.21;102584.72;7402853;19;1455;-66
2022/11/13 03:05:03;;;;;;;;;;;;;;;20.81;60.41;102580.91;7406195;19;1477;-66
2022/11/13 03:07:32;;;;;;;;;;;;;;;20.74;60.08;102583.16;7405491;19;1348;-66
2022/11/13 03:10:00;;;;;;;;;;;;;;;20.71;60.55;102583.38;7404989;19;1373;-66
2022/11/13 03:12:28;;;;;;;;;;;;;;;20.85;60.51;102587.81;7404987;19;1627;-66
2022/11/13 03:14:59;;;;;;;;;;;;;;;20.90;60.01;102576.75;7406076;19;1477;-66
2022/11/13 03:17:28;;;;;;;;;;;;;;;20.78;60.29;102578.44;7405026;19;1527;-66
2022/11/13 03:19:56;;;;;;;;;;;;;;;21.08;59.63;102582.69;7406311;19;1845;-66
2022/11/13 03:22:24;;;;;;;;;;;;;;;21.15;59.65;102586.66;7405204;19;1714;-66
2022/11/13 03:24:53;;;;;;;;;;;;;;;20.93;59.23;102592.66;7404831;19;1741;-66
2022/11/13 03:27:21;;;;;;;;;;;;;;;20.71;60.17;102585.16;7401114;19;1844;-66
2022/11/13 03:29:50;;;;;;;;;;;;;;;21.01;59.62;102587.66;7405713;19;1607;-66
2022/11/13 03:32:21;;;;;;;;;;;;;;;20.91;59.89;102590.09;7405744;19;979;-66
2022/11/13 03:34:49;;;;;;;;;;;;;;;20.80;59.81;102585.41;7405975;19;1701;-66
2022/11/13 03:37:18;;;;;;;;;;;;;;;20.75;60.09;102581.31;7404142;19;1765;-66
2022/11/13 03:39:46;;;;;;;;;;;;;;;21.11;59.34;102580.66;7404418;19;1861;-66
2022/11/13 03:42:14;;;;;;;;;;;;;;;20.93;59.77;102571.13;7405767;19;1540;-66
2022/11/13 03:44:42;;;;;;;;;;;;;;;20.83;59.24;102576.28;7405919;19;1079;-66
2022/11/13 03:47:11;;;;;;;;;;;;;;;21.05;59.26;102568.50;7405301;19;1616;-66
2022/11/13 03:49:42;;;;;;;;;;;;;;;21.09;59.43;102571.84;7404752;19;1741;-66
2022/11/13 03:52:10;;;;;;;;;;;;;;;20.98;59.01;102579.78;7402411;19;1757;-66
2022/11/13 03:54:38;;;;;;;;;;;;;;;20.73;59.90;102576.06;7403420;19;2029;-66
2022/11/13 03:57:06;;;;;;;;;;;;;;;21.06;58.94;102570.19;7404590;19;1340;-66
2022/11/13 03:59:35;;;;;;;;;;;;;;;20.99;59.04;102574.28;7405158;19;1850;-66
2022/11/13 04:02:03;;;;;;;;;;;;;;;20.90;58.83;102558.78;7407328;19;1516;-66
2022/11/13 04:04:31;;;;;;;;;;;;;;;20.80;59.68;102555.00;7411297;19;1678;-66
2022/11/13 04:07:02;;;;;;;;;;;;;;;21.12;58.98;102576.13;7411374;19;1601;-66
2022/11/13 04:09:31;;;;;;;;;;;;;;;21.02;58.99;102565.16;7411591;19;1540;-66
2022/11/13 04:11:59;;;;;;;;;;;;;;;20.90;58.83;102572.22;7412869;19;1009;-66
2022/11/13 04:14:27;;;;;;;;;;;;;;;20.86;59.59;102581.47;7412007;19;1760;-66
2022/11/13 04:16:56;;;;;;;;;;;;;;;21.03;58.91;102575.81;7410634;19;1486;-66
2022/11/13 04:19:24;;;;;;;;;;;;;;;21.09;58.36;102563.75;7410358;19;1577;-66
2022/11/13 04:21:52;;;;;;;;;;;;;;;20.83;59.28;102573.59;7408487;19;1845;-66
2022/11/13 04:24:23;;;;;;;;;;;;;;;21.16;58.68;102562.34;7411045;19;1998;-66
2022/11/13 04:26:52;;;;;;;;;;;;;;;21.16;58.50;102569.56;7411851;19;1374;-66
2022/11/13 04:29:20;;;;;;;;;;;;;;;20.93;58.81;102563.97;7411068;19;1580;-66
2022/11/13 04:31:48;;;;;;;;;;;;;;;20.94;58.76;102541.47;7410528;19;1494;-66
2022/11/13 04:34:17;;;;;;;;;;;;;;;21.23;58.48;102557.44;7410861;19;1587;-66
2022/11/13 04:36:45;;;;;;;;;;;;;;;21.15;58.33;102554.38;7410966;19;1528;-66
2022/11/13 04:39:13;;;;;;;;;;;;;;;20.94;58.52;102552.22;7410526;19;1495;-66
2022/11/13 04:44:25;;;;;;;;;;;;;;;21.34;57.94;102567.44;7410482;19;1571;-66
2022/11/13 04:46:53;;;;;;;;;;;;;;;21.10;58.40;102561.94;7410335;19;1678;-66
2022/11/13 04:49:21;;;;;;;;;;;;;;;20.94;59.00;102559.44;7410277;19;1371;-66
2022/11/13 04:51:49;;;;;;;;;;;;;;;21.20;58.38;102546.88;7410123;19;1352;-66
2022/11/13 04:54:18;;;;;;;;;;;;;;;21.15;58.32;102535.56;7409865;19;1407;-66
2022/11/13 04:56:49;;;;;;;;;;;;;;;20.97;58.25;102537.69;7410948;19;942;-66
2022/11/13 04:59:17;;;;;;;;;;;;;;;20.93;58.64;102545.13;7409795;19;1674;-66
2022/11/13 05:01:46;;;;;;;;;;;;;;;21.19;58.18;102535.25;7406689;19;1850;-66
2022/11/13 05:04:14;;;;;;;;;;;;;;;21.05;58.32;102533.53;7410243;19;1339;-66
2022/11/13 05:06:43;;;;;;;;;;;;;;;20.93;57.96;102539.75;7410135;19;1390;-66
2022/11/13 05:09:12;;;;;;;;;;;;;;;20.98;58.34;102534.03;7410135;19;1317;-66
2022/11/13 05:11:40;;;;;;;;;;;;;;;21.14;57.99;102550.84;7410480;19;970;-66
2022/11/13 05:14:12;;;;;;;;;;;;;;;21.09;57.98;102544.06;7408015;19;1640;-66
2022/11/13 05:16:41;;;;;;;;;;;;;;;20.94;58.25;102552.22;7408503;19;1569;-66
2022/11/13 05:19:09;;;;;;;;;;;;;;;21.33;57.62;102545.06;7409759;19;1493;-66
2022/11/13 05:21:38;;;;;;;;;;;;;;;21.45;57.08;102557.69;7407470;19;1863;-66
2022/11/13 05:24:07;;;;;;;;;;;;;;;21.19;57.26;102553.25;7406223;19;1568;-66
2022/11/13 05:26:35;;;;;;;;;;;;;;;20.96;58.07;102544.06;7409166;19;1071;-66
2022/11/13 05:29:03;;;;;;;;;;;;;;;21.35;57.59;102540.44;7406367;19;1795;-66
2022/11/13 05:31:34;;;;;;;;;;;;;;;21.35;57.48;102553.88;7408569;19;1338;-66
2022/11/13 05:34:04;;;;;;;;;;;;;;;21.05;57.95;102562.25;7408868;19;1606;-66
2022/11/13 05:36:32;;;;;;;;;;;;;;;21.05;58.06;102560.41;7407529;19;1344;-66
2022/11/13 05:39:01;;;;;;;;;;;;;;;21.15;57.97;102563.34;7405232;19;1627;-66
2022/11/13 05:41:29;;;;;;;;;;;;;;;21.10;57.74;102561.94;7407349;19;1853;-66
2022/11/13 05:43:58;;;;;;;;;;;;;;;20.95;57.87;102561.13;7406293;19;1761;-66
2022/11/13 05:46:28;;;;;;;;;;;;;;;21.16;57.65;102561.50;7408998;19;1301;-66
2022/11/13 05:48:59;;;;;;;;;;;;;;;21.36;57.39;102570.88;7408201;19;1537;-66
2022/11/13 05:51:28;;;;;;;;;;;;;;;21.13;57.50;102559.91;7405556;19;1477;-66
2022/11/13 05:53:57;;;;;;;;;;;;;;;20.96;58.27;102565.56;7406888;19;1328;-66
2022/11/13 05:56:27;;;;;;;;;;;;;;;20.82;59.02;102586.19;7403481;19;1490;-67
2022/11/13 05:58:56;;;;;;;;;;;;;;;20.99;59.32;102565.34;7405102;19;1318;-69
2022/11/13 06:01:25;;;;;;;;;;;;;;;21.21;59.15;102567.44;7404140;19;1864;-64
2022/11/13 06:03:54;;;;;;;;;;;;;;;21.42;58.94;102567.75;7403480;19;1331;-65
2022/11/13 06:06:25;;;;;;;;;;;;;;;21.20;59.61;102571.09;7405961;19;1607;-63
2022/11/13 06:08:54;;;;;;;;;;;;;;;20.73;61.13;102575.19;7405593;19;1336;-63
2022/11/13 06:11:23;;;;;;;;;;;;;;;20.63;61.62;102578.50;7407701;19;1005;-63
2022/11/13 06:13:52;;;;;;;;;;;;;;;20.79;61.72;102574.75;7406063;19;1376;-62
2022/11/13 06:16:22;;;;;;;;;;;;;;;20.76;63.05;102575.84;7407198;19;1237;-62
2022/11/13 06:18:51;;;;;;;;;;;;;;;20.80;63.18;102563.91;7343121;19;13519;-63
2022/11/13 06:21:21;;;;;;;;;;;;;;;20.78;63.17;102584.66;6887588;19;10000589;-63
2022/11/13 06:23:52;;;;;;;;;;;;;;;20.89;63.31;102570.50;7402936;19;1197;-63
2022/11/13 06:26:21;;;;;;;;;;;;;;;20.90;63.78;102574.06;7403537;19;1535;-63
2022/11/13 06:28:49;;;;;;;;;;;;;;;20.97;64.01;102576.22;7405271;19;1675;-63
2022/11/13 06:31:19;;;;;;;;;;;;;;;21.00;64.39;102573.31;7403116;19;1367;-64
2022/11/13 06:33:48;;;;;;;;;;;;;;;20.92;64.97;102586.41;7403603;19;1357;-65
2022/11/13 06:36:17;;;;;;;;;;;;;;;20.77;65.63;102584.75;7406524;19;1270;-64
2022/11/13 06:38:46;;;;;;;;;;;;;;;20.74;66.33;102576.91;7401661;19;1212;-68
2022/11/13 06:41:18;;;;;;;;;;;;;;;20.68;66.68;102566.56;7400158;19;1858;-69
2022/11/13 06:43:47;;;;;;;;;;;;;;;20.67;66.92;102592.56;7400959;19;1163;-68
2022/11/13 06:46:16;;;;;;;;;;;;;;;20.64;66.92;102580.22;7400916;19;1194;-67
2022/11/13 06:48:45;;;;;;;;;;;;;;;20.65;67.24;102587.31;7403729;19;1231;-69
2022/11/13 06:51:14;;;;;;;;;;;;;;;20.65;67.09;102589.13;7403593;19;1320;-71
2022/11/13 06:53:43;;;;;;;;;;;;;;;20.67;67.04;102592.56;7405722;19;1418;-73
2022/11/13 06:56:12;;;;;;;;;;;;;;;20.60;67.35;102576.00;7405525;19;1904;-74
2022/11/13 06:58:43;;;;;;;;;;;;;;;20.57;67.69;102578.88;7404646;19;1231;-71
2022/11/13 07:01:13;;;;;;;;;;;;;;;20.59;67.71;102585.03;7402569;19;1841;-71
2022/11/13 07:03:41;;;;;;;;;;;;;;;20.61;67.61;102558.94;7402175;19;1165;-70
2022/11/13 07:06:13;;;;;;;;;;;;;;;20.55;67.68;102570.06;7401139;19;1297;-67
2022/11/13 07:08:42;;;;;;;;;;;;;;;20.55;68.07;102578.13;7402577;19;1296;-66
2022/11/13 07:11:12;;;;;;;;;;;;;;;20.59;68.01;102573.41;7403534;19;1610;-61
2022/11/13 07:13:43;;;;;;;;;;;;;;;20.55;68.37;102583.50;7401418;19;1538;-68
2022/11/13 07:16:13;;;;;;;;;;;;;;;20.38;68.90;102581.06;7402366;19;1455;-64
2022/11/13 07:18:42;;;;;;;;;;;;;;;20.32;68.89;102576.94;7403281;19;1662;-63
2022/11/13 07:21:11;;;;;;;;;;;;;;;20.27;69.25;102558.44;7400457;19;1860;-65
2022/11/13 07:23:42;;;;;;;;;;;;;;;20.23;69.08;102564.97;7402423;19;1696;-67
2022/11/13 07:26:10;;;;;;;;;;;;;;;20.17;69.16;102573.41;7404930;19;1535;-62
2022/11/13 07:28:39;;;;;;;;;;;;;;;20.18;69.25;102558.16;7402288;19;1680;-64
2022/11/13 07:31:11;;;;;;;;;;;;;;;20.13;69.03;102563.81;7399801;19;1401;-65
2022/11/13 07:33:39;;;;;;;;;;;;;;;20.13;68.20;102549.53;7402295;19;1636;-61
2022/11/13 07:36:08;;;;;;;;;;;;;;;20.12;68.59;102559.44;7402121;19;1400;-64
2022/11/13 07:38:37;;;;;;;;;;;;;;;20.13;68.53;102563.81;7403317;19;1538;-61
2022/11/13 07:41:05;;;;;;;;;;;;;;;20.19;68.81;102565.25;7404320;19;1848;-62
2022/11/13 07:43:34;;;;;;;;;;;;;;;20.23;68.50;102567.66;7403363;19;1688;-62
2022/11/13 07:46:03;;;;;;;;;;;;;;;20.11;69.03;102568.44;7404094;19;1253;-63
2022/11/13 07:48:34;;;;;;;;;;;;;;;20.06;69.18;102571.41;7404077;19;1221;-62
2022/11/13 07:51:03;;;;;;;;;;;;;;;20.50;67.57;102569.50;7403578;19;1621;-61
2022/11/13 07:53:31;;;;;;;;;;;;;;;20.81;66.30;102560.28;7405051;19;1332;-63
2022/11/13 07:56:02;;;;;;;;;;;;;;;20.44;66.72;102556.47;7405390;19;1022;-61
2022/11/13 07:58:30;;;;;;;;;;;;;;;20.36;67.19;102548.91;7404296;19;1400;-62
2022/11/13 08:01:02;;;;;;;;;;;;;;;20.46;66.71;102562.59;7401100;19;1861;-69
2022/11/13 08:03:34;;;;;;;;;;;;;;;20.43;66.82;102554.72;7402430;19;1350;-64
2022/11/13 08:06:03;;;;;;;;;;;;;;;20.60;66.44;102545.59;7402771;19;1301;-66
2022/11/13 08:08:32;;;;;;;;;;;;;;;20.73;66.29;102537.53;7403426;19;1250;-66
2022/11/13 08:11:00;;;;;;;;;;;;;;;20.65;66.64;102546.13;7404231;19;1071;-63
2022/11/13 08:13:29;;;;;;;;;;;;;;;20.65;66.88;102541.63;7403693;19;1393;-63
2022/11/13 08:16:00;;;;;;;;;;;;;;;20.64;67.44;102539.88;7402718;19;1292;-69
2022/11/13 08:18:28;;;;;;;;;;;;;;;20.47;68.00;102545.50;7403626;19;1320;-66
2022/11/13 08:21:02;;;;;;;;;;;;;;;20.52;67.96;102543.38;7402168;19;1821;-64
2022/11/13 08:23:30;;;;;;;;;;;;;;;20.78;68.04;102546.16;7404329;19;1289;-62
2022/11/13 08:25:58;;;;;;;;;;;;;;;20.70;67.90;102551.19;7404296;19;1066;-63
2022/11/13 08:28:27;;;;;;;;;;;;;;;20.71;66.79;102555.59;7402146;19;1538;-61
2022/11/13 08:30:55;;;;;;;;;;;;;;;20.56;67.57;102552.09;7402530;19;1510;-62
2022/11/13 08:33:23;;;;;;;;;;;;;;;20.33;68.28;102522.22;7401869;19;1481;-63
2022/11/13 08:35:55;;;;;;;;;;;;;;;20.25;68.14;102522.75;7401074;19;1494;-63
2022/11/13 08:38:27;;;;;;;;;;;;;;;20.19;68.09;102541.97;7400331;19;1348;-63
2022/11/13 08:40:58;;;;;;;;;;;;;;;20.13;68.13;102520.00;7401007;19;1070;-62
2022/11/13 08:43:26;;;;;;;;;;;;;;;20.08;68.91;102538.25;7399199;19;1838;-63
2022/11/13 08:45:54;;;;;;;;;;;;;;;20.05;68.96;102517.81;7401725;19;1206;-65
2022/11/13 08:48:23;;;;;;;;;;;;;;;20.08;67.51;102524.81;7406299;19;1402;-62
2022/11/13 08:50:53;;;;;;;;;;;;;;;20.02;69.07;102520.69;7410635;19;1526;-62
2022/11/13 08:53:21;;;;;;;;;;;;;;;19.99;69.51;102523.56;7409351;19;1386;-62
2022/11/13 08:55:52;;;;;;;;;;;;;;;19.98;69.36;102540.66;7405024;19;1328;-61
2022/11/13 08:58:21;;;;;;;;;;;;;;;20.22;69.13;102522.94;7409740;19;1732;-62
2022/11/13 09:00:49;;;;;;;;;;;;;;;20.48;68.96;102525.72;7407631;19;1560;-64
2022/11/13 09:03:17;;;;;;;;;;;;;;;20.58;68.68;102508.00;7405167;19;1857;-62
2022/11/13 09:05:46;;;;;;;;;;;;;;;20.60;69.03;102511.50;7407522;19;1392;-65
2022/11/13 09:08:14;;;;;;;;;;;;;;;20.76;68.29;102505.09;7406129;19;1761;-62
2022/11/13 09:10:43;;;;;;;;;;;;;;;20.73;68.97;102522.28;7408291;19;1401;-59
2022/11/13 09:13:14;;;;;;;;;;;;;;;20.64;69.04;102513.00;7405756;19;1309;-60
2022/11/13 09:15:42;;;;;;;;;;;;;;;20.62;68.96;102506.03;7406893;19;1394;-60
2022/11/13 09:18:11;;;;;;;;;;;;;;;20.73;69.39;102524.09;7406419;19;1308;-62
2022/11/13 09:20:39;;;;;;;;;;;;;;;20.73;69.79;102499.91;7404926;19;1213;-62
2022/11/13 09:23:09;;;;;;;;;;;;;;;20.49;69.41;102508.63;7404773;19;1896;-62
2022/11/13 09:25:38;;;;;;;;;;;;;;;20.32;70.42;102516.97;7408122;19;1095;-63
2022/11/13 09:28:06;;;;;;;;;;;;;;;20.15;70.58;102510.88;7406054;19;1481;-62
2022/11/13 09:30:39;;;;;;;;;;;;;;;20.08;70.88;102504.19;7407518;19;1351;-62
2022/11/13 09:33:07;;;;;;;;;;;;;;;19.99;71.12;102500.25;7406899;19;1332;-62
2022/11/13 09:35:36;;;;;;;;;;;;;;;20.00;71.24;102485.03;7406074;19;1355;-63
2022/11/13 09:38:05;;;;;;;;;;;;;;;19.99;70.97;102488.66;7406528;19;1324;-62
2022/11/13 09:40:35;;;;;;;;;;;;;;;19.98;70.71;102481.59;7407938;19;1100;-63
2022/11/13 09:43:04;;;;;;;;;;;;;;;20.00;70.85;102455.50;7405161;19;1852;-62
2022/11/13 09:45:33;;;;;;;;;;;;;;;19.95;71.12;102479.09;7406803;19;1431;-64
2022/11/13 09:48:11;;;;;;;;;;;;;;;19.90;71.04;102483.91;7408531;19;1407;-65
2022/11/13 09:50:41;;;;;;;;;;;;;;;19.86;71.35;102473.34;7406865;19;1136;-64
2022/11/13 09:53:11;;;;;;;;;;;;;;;19.84;71.54;102459.19;7408200;19;1392;-64
2022/11/13 09:55:43;;;;;;;;;;;;;;;19.80;71.17;102473.75;7409099;19;976;-63
2022/11/13 09:58:16;;;;;;;;;;;;;;;19.76;71.21;102456.13;7405398;19;1704;-64
2022/11/13 10:00:44;;;;;;;;;;;;;;;19.74;71.37;102463.41;7406647;19;1312;-63
2022/11/13 10:03:30;;;;;;;;;;;;;;;19.73;71.35;102461.69;7405407;19;1866;-62
2022/11/13 10:06:03;;;;;;;;;;;;;;;19.72;71.32;102453.75;7406853;19;1211;-65
2022/11/13 10:08:37;;;;;;;;;;;;;;;19.73;71.36;102469.75;7407552;19;1158;-64
2022/11/13 10:11:10;;;;;;;;;;;;;;;19.65;71.46;102443.34;7407780;19;1055;-63
2022/11/13 10:13:42;;;;;;;;;;;;;;;19.63;71.14;102434.53;7406009;19;1652;-63
2022/11/13 10:16:18;;;;;;;;;;;;;;;19.69;71.09;102452.06;7406959;19;1355;-64
2022/11/13 10:18:51;;;;;;;;;;;;;;;19.66;71.26;102444.25;7406233;19;1613;-62
2022/11/13 10:21:23;;;;;;;;;;;;;;;19.65;71.07;102431.75;7406140;19;1404;-64
2022/11/13 10:23:56;;;;;;;;;;;;;;;19.64;71.24;102440.78;7404349;19;1853;-63
2022/11/13 10:26:26;;;;;;;;;;;;;;;19.62;71.25;102422.09;7406402;19;1153;-64
2022/11/13 10:28:58;;;;;;;;;;;;;;;19.60;71.23;102428.53;7404513;19;1614;-65
2022/11/13 10:31:26;;;;;;;;;;;;;;;19.58;71.14;102431.31;7406813;19;1332;-64
2022/11/13 10:33:58;;;;;;;;;;;;;;;19.59;71.29;102424.13;7405902;19;1334;-64
2022/11/13 10:36:35;;;;;;;;;;;;;;;19.55;71.41;102428.81;7406112;19;1345;-62
2022/11/13 10:39:06;;;;;;;;;;;;;;;19.57;71.25;102408.09;7405440;19;1428;-63
2022/11/13 10:41:35;;;;;;;;;;;;;;;19.58;71.01;102433.13;7406605;19;1126;-62
2022/11/13 10:44:03;;;;;;;;;;;;;;;19.60;71.03;102428.53;7403654;19;1834;-62
2022/11/13 10:46:32;;;;;;;;;;;;;;;19.59;71.16;102416.91;7405867;19;1534;-61
2022/11/13 10:49:13;;;;;;;;;;;;;;;19.57;71.14;102412.63;7404042;19;1244;-61
2022/11/13 10:51:41;;;;;;;;;;;;;;;19.61;71.04;102416.81;7404687;19;1139;-64
2022/11/13 10:54:21;;;;;;;;;;;;;;;19.56;71.29;102414.44;7403958;19;1291;-63
2022/11/13 10:56:58;;;;;;;;;;;;;;;19.54;71.10;102407.47;7405039;19;1198;-64
2022/11/13 10:59:27;;;;;;;;;;;;;;;19.56;71.32;102400.19;7404983;19;1453;-61
2022/11/13 11:01:55;;;;;;;;;;;;;;;19.61;71.21;102392.66;7401431;19;1869;-67
2022/11/13 11:04:27;;;;;;;;;;;;;;;19.71;71.03;102387.56;7403711;19;1179;-66
2022/11/13 11:06:55;;;;;;;;;;;;;;;20.18;69.74;102379.06;7403786;19;1155;-61
2022/11/13 11:09:28;;;;;;;;;;;;;;;20.17;70.05;102381.84;7404073;19;1438;-61
2022/11/13 11:14:44;;;;;;;;;;;;;;;20.05;70.38;102370.97;7405241;19;941;-62
2022/11/13 11:17:13;;;;;;;;;;;;;;;20.27;70.12;102373.06;7403972;19;1017;-63
2022/11/13 11:19:56;;;;;;;;;;;;;;;20.35;70.24;102368.97;7402829;19;1664;-62
2022/11/13 11:22:26;;;;;;;;;;;;;;;20.26;71.03;102363.28;7404373;19;1845;-62
2022/11/13 11:24:58;;;;;;;;;;;;;;;20.16;70.95;102372.06;7405027;19;1736;-65
2022/11/13 11:27:29;;;;;;;;;;;;;;;20.09;71.15;102368.94;7403666;19;1523;-66
2022/11/13 11:30:03;;;;;;;;;;;;;;;20.10;71.09;102367.97;7404086;19;1153;-62
2022/11/13 11:32:34;;;;;;;;;;;;;;;20.11;71.36;102371.50;7403898;19;1333;-64
2022/11/13 11:35:08;;;;;;;;;;;;;;;20.15;71.01;102357.75;7403264;19;1435;-66
2022/11/13 11:37:38;;;;;;;;;;;;;;;20.23;70.88;102368.88;7404115;19;1143;-64
2022/11/13 11:40:14;;;;;;;;;;;;;;;20.22;70.87;102355.53;7403904;19;1422;-65
2022/11/13 11:42:48;;;;;;;;;;;;;;;20.32;70.55;102361.16;7401477;19;1859;-63
2022/11/13 11:45:18;;;;;;;;;;;;;;;20.32;70.52;102361.16;7405692;19;1146;-62
2022/11/13 11:47:47;;;;;;;;;;;;;;;20.29;70.36;102358.66;7404589;19;1000;-63
2022/11/13 11:50:19;;;;;;;;;;;;;;;20.30;70.34;102341.59;7403824;19;1146;-62
2022/11/13 11:52:57;;;;;;;;;;;;;;;20.32;70.38;102345.03;7403952;19;1793;-63
2022/11/13 11:55:33;;;;;;;;;;;;;;;20.31;70.38;102354.03;7404205;19;2066;-63
2022/11/13 11:58:07;;;;;;;;;;;;;;;20.34;70.22;102353.84;7403905;19;1359;-63
2022/11/13 12:00:40;;;;;;;;;;;;;;;20.30;70.24;102341.59;7403109;19;1375;-64
2022/11/13 12:03:23;;;;;;;;;;;;;;;20.44;70.07;102339.66;7400005;19;1861;-63
2022/11/13 12:05:59;;;;;;;;;;;;;;;20.49;69.06;102342.00;7398151;19;1435;-63
2022/11/13 12:08:35;;;;;;;;;;;;;;;20.39;69.35;102346.31;7401491;19;1301;-62
2022/11/13 12:11:07;;;;;;;;;;;;;;;20.58;68.83;102346.75;7402456;19;1804;-66
2022/11/13 12:13:41;;;;;;;;;;;;;;;20.52;69.22;102339.13;7402293;19;1554;-63
2022/11/13 12:16:11;;;;;;;;;;;;;;;20.53;69.02;102338.16;7402898;19;1676;-65
2022/11/13 12:18:51;;;;;;;;;;;;;;;20.57;68.73;102350.41;7402565;19;1530;-64
2022/11/13 12:21:26;;;;;;;;;;;;;;;20.50;69.07;102341.06;7403222;19;1406;-64
2022/11/13 12:24:11;;;;;;;;;;;;;;;20.41;69.42;102334.50;7407096;19;1837;-64
2022/11/13 12:26:44;;;;;;;;;;;;;;;20.48;69.53;102326.00;7407289;19;1695;-62
2022/11/13 12:29:18;;;;;;;;;;;;;;;20.43;68.52;102334.38;7410672;19;1695;-62
2022/11/13 12:31:55;;;;;;;;;;;;;;;20.13;67.82;102330.16;7410397;19;1759;-62
2022/11/13 12:34:26;;;;;;;;;;;;;;;19.97;68.98;102319.59;7409987;19;1653;-62
2022/11/13 12:36:58;;;;;;;;;;;;;;;19.88;69.79;102332.81;7410704;19;1633;-62
2022/11/13 12:39:32;;;;;;;;;;;;;;;19.83;70.90;102322.34;7410740;19;1732;-62
2022/11/13 12:42:04;;;;;;;;;;;;;;;19.76;68.46;102323.75;7411111;19;1019;-62
2022/11/13 12:44:35;;;;;;;;;;;;;;;19.70;68.40;102324.97;7408992;19;1850;-62
2022/11/13 12:47:03;;;;;;;;;;;;;;;19.71;69.11;102326.72;7410469;19;1767;-62
2022/11/13 12:49:33;;;;;;;;;;;;;;;19.69;69.42;102328.63;7410362;19;1684;-62
2022/11/13 12:52:05;;;;;;;;;;;;;;;19.65;68.74;102333.31;7408626;19;1783;-64
2022/11/13 12:54:36;;;;;;;;;;;;;;;19.68;71.15;102318.84;7410074;19;1345;-62
2022/11/13 12:57:08;;;;;;;;;;;;;;;19.69;70.58;102312.50;7407467;19;1541;-63
2022/11/13 12:59:38;;;;;;;;;;;;;;;19.65;70.70;102327.09;7408176;19;1628;-76
2022/11/13 13:02:19;;;;;;;;;;;;;;;19.65;71.08;102319.03;7407570;19;1444;-71
2022/11/13 13:04:56;;;;;;;;;;;;;;;19.64;70.09;102320.88;7406740;19;1863;-67
2022/11/13 13:07:34;;;;;;;;;;;;;;;19.62;70.85;102319.28;7409276;19;1341;-62